Time;durP1;ratioP1;P1;durP2;ratioP2;P2;SDS_P1;SDS_P2;PMS_P1;PMS_P2;Temp;Humidity;BMP_temperature;BMP_pressure;BME280_temperature;BME280_humidity;BME280_pressure;Samples;Min_cycle;Max_cycle;Signal;HPM_P1;HPM_P2
2023/06/23 00:00:12;;;;;;;9.57;7.63;;;19.40;99.90;;;;;;5009128;28;20115;-90
2023/06/23 00:02:41;;;;;;;13.05;7.53;;;19.40;99.90;;;;;;5013480;28;20063;-89
2023/06/23 00:05:11;;;;;;;11.07;7.25;;;19.40;99.90;;;;;;4999004;28;20026;-91
2023/06/23 00:07:38;;;;;;;12.40;7.03;;;19.40;99.90;;;;;;4991459;28;20034;-90
2023/06/23 00:10:11;;;;;;;11.23;7.20;;;19.40;99.90;;;;;;5003101;28;20033;-89
2023/06/23 00:12:41;;;;;;;14.85;8.02;;;19.40;99.90;;;;;;5006736;28;20102;-89
2023/06/23 00:15:08;;;;;;;16.13;7.82;;;19.40;99.90;;;;;;5013088;28;20032;-90
2023/06/23 00:17:36;;;;;;;14.75;8.80;;;19.40;99.90;;;;;;4988680;28;20626;-90
2023/06/23 00:20:07;;;;;;;25.50;8.38;;;19.30;99.90;;;;;;5013841;28;20112;-90
2023/06/23 00:22:33;;;;;;;16.00;8.98;;;19.30;99.90;;;;;;5031368;28;20029;-90
2023/06/23 00:24:59;;;;;;;13.63;8.18;;;19.40;99.90;;;;;;5017217;28;20033;-90
2023/06/23 00:27:25;;;;;;;23.65;9.25;;;19.30;99.90;;;;;;5010429;28;20037;-91
2023/06/23 00:29:51;;;;;;;17.85;9.32;;;19.40;99.90;;;;;;5001569;28;20033;-90
2023/06/23 00:32:17;;;;;;;15.13;9.52;;;19.30;99.90;;;;;;4996213;28;20038;-89
2023/06/23 00:34:43;;;;;;;24.30;9.45;;;19.30;99.90;;;;;;4997009;28;20026;-89
2023/06/23 00:37:09;;;;;;;18.75;9.05;;;19.30;99.90;;;;;;5011610;28;20592;-89
2023/06/23 00:39:35;;;;;;;14.57;9.15;;;19.30;99.90;;;;;;5015474;28;20034;-89
2023/06/23 00:42:03;;;;;;;15.88;9.52;;;19.20;99.90;;;;;;5001750;28;20021;-89
2023/06/23 00:44:30;;;;;;;17.90;9.13;;;19.20;99.90;;;;;;5012051;28;20068;-90
2023/06/23 00:46:56;;;;;;;19.23;10.27;;;19.30;99.90;;;;;;5001871;28;20069;-89
2023/06/23 00:49:22;;;;;;;12.32;8.38;;;19.30;99.90;;;;;;5026426;28;20037;-89
2023/06/23 00:51:48;;;;;;;16.05;8.50;;;19.20;99.90;;;;;;4992579;28;20477;-89
2023/06/23 00:54:14;;;;;;;14.93;8.43;;;19.20;99.90;;;;;;4998767;28;20091;-90
2023/06/23 00:56:40;;;;;;;15.43;8.68;;;19.20;99.90;;;;;;5000520;28;20038;-89
2023/06/23 00:59:07;;;;;;;17.95;8.73;;;19.20;99.90;;;;;;4999216;28;20025;-90
2023/06/23 01:01:33;;;;;;;16.73;8.70;;;19.20;99.90;;;;;;5008526;28;20393;-90
2023/06/23 01:04:00;;;;;;;17.73;7.82;;;19.10;99.90;;;;;;4996329;28;20066;-89
2023/06/23 01:06:40;;;;;;;19.83;8.70;;;19.10;99.90;;;;;;4988518;28;20066;-90
2023/06/23 01:09:28;;;;;;;14.57;7.78;;;19.10;99.90;;;;;;5013281;28;20025;-90
2023/06/23 01:12:12;;;;;;;13.43;7.43;;;19.10;99.90;;;;;;5008827;28;20025;-89
2023/06/23 01:14:53;;;;;;;13.88;7.07;;;19.10;99.90;;;;;;5004786;28;20034;-91
2023/06/23 01:17:32;;;;;;;13.07;7.35;;;19.10;99.90;;;;;;5006941;28;20026;-89
2023/06/23 01:20:20;;;;;;;12.38;6.97;;;19.10;99.90;;;;;;4999369;28;20042;-90
2023/06/23 01:22:54;;;;;;;17.50;7.10;;;19.00;99.90;;;;;;4989042;28;20037;-90
2023/06/23 01:25:44;;;;;;;18.80;7.50;;;19.00;99.90;;;;;;5009030;28;20036;-89
2023/06/23 01:28:47;;;;;;;21.65;7.38;;;19.00;99.90;;;;;;5006557;28;20078;-89
2023/06/23 01:31:24;;;;;;;17.92;6.57;;;19.00;99.90;;;;;;4997786;28;20038;-89
2023/06/23 01:33:58;;;;;;;14.40;6.95;;;18.90;99.90;;;;;;4996968;28;20040;-90
2023/06/23 01:36:37;;;;;;;12.85;6.03;;;18.90;99.90;;;;;;5000200;28;20033;-86
2023/06/23 01:39:08;;;;;;;15.75;7.25;;;18.80;99.90;;;;;;4975738;28;20113;-89
2023/06/23 01:41:42;;;;;;;8.50;5.70;;;18.70;99.90;;;;;;5016246;28;20112;-88
2023/06/23 01:44:14;;;;;;;7.10;5.30;;;18.70;99.90;;;;;;4981487;28;20565;-90
2023/06/23 01:46:44;;;;;;;9.85;5.75;;;18.70;99.90;;;;;;5003092;28;20210;-89
2023/06/23 01:49:16;;;;;;;6.10;4.68;;;18.70;99.90;;;;;;5009610;28;20037;-89
2023/06/23 01:51:45;;;;;;;10.38;5.05;;;18.60;99.90;;;;;;5004727;28;20033;-89
2023/06/23 01:54:16;;;;;;;8.02;4.88;;;18.60;99.90;;;;;;5014008;28;20026;-89
2023/06/23 01:56:43;;;;;;;7.43;4.90;;;18.50;99.90;;;;;;5012813;28;20036;-90
2023/06/23 01:59:11;;;;;;;5.60;5.10;;;18.50;99.90;;;;;;5019748;28;20509;-89
2023/06/23 02:01:38;;;;;;;10.98;5.10;;;18.50;99.90;;;;;;5003276;28;20029;-88
2023/06/23 02:04:06;;;;;;;6.78;5.13;;;18.50;99.90;;;;;;4982016;28;20514;-89
2023/06/23 02:06:35;;;;;;;14.48;5.65;;;18.50;99.90;;;;;;4998971;28;20032;-89
2023/06/23 02:09:06;;;;;;;8.45;4.55;;;18.50;99.90;;;;;;4991018;28;20113;-90
2023/06/23 02:11:35;;;;;;;8.82;4.90;;;18.40;99.90;;;;;;4998706;28;20079;-88
2023/06/23 02:14:02;;;;;;;10.85;5.70;;;18.40;99.90;;;;;;4996754;28;20536;-90
2023/06/23 02:16:32;;;;;;;8.45;4.43;;;18.40;99.90;;;;;;5012152;28;20034;-90
2023/06/23 02:18:59;;;;;;;5.80;4.93;;;18.30;99.90;;;;;;5011939;28;20116;-89
2023/06/23 02:21:26;;;;;;;6.07;4.50;;;18.30;99.90;;;;;;5011937;28;20118;-89
2023/06/23 02:23:53;;;;;;;7.35;4.68;;;18.20;99.90;;;;;;4992678;28;20044;-90
2023/06/23 02:26:22;;;;;;;8.85;4.38;;;18.20;99.90;;;;;;4983721;28;20805;-90
2023/06/23 02:28:50;;;;;;;12.80;4.70;;;18.20;99.90;;;;;;4987530;28;20304;-89
2023/06/23 02:31:22;;;;;;;7.15;4.68;;;18.20;99.90;;;;;;5011760;28;20113;-91
2023/06/23 02:33:49;;;;;;;7.90;4.97;;;18.10;99.90;;;;;;4998292;28;20464;-90
2023/06/23 02:36:19;;;;;;;11.15;4.60;;;18.10;99.90;;;;;;5022973;28;20080;-89
2023/06/23 02:38:47;;;;;;;5.25;4.75;;;18.10;99.90;;;;;;5002844;28;20029;-90
2023/06/23 02:41:14;;;;;;;6.25;4.40;;;18.00;99.90;;;;;;4985238;28;20040;-89
2023/06/23 02:43:54;;;;;;;7.93;4.80;;;18.00;99.90;;;;;;4995834;28;20037;-89
2023/06/23 02:46:29;;;;;;;5.53;5.03;;;18.00;99.90;;;;;;5016886;28;20121;-90
2023/06/23 02:49:05;;;;;;;7.03;5.38;;;18.00;99.90;;;;;;5015623;28;20025;-90
2023/06/23 02:51:34;;;;;;;7.35;4.75;;;18.00;99.90;;;;;;5020885;28;20414;-89
2023/06/23 02:54:05;;;;;;;5.32;4.80;;;18.00;99.90;;;;;;4985681;28;20037;-89
2023/06/23 02:56:36;;;;;;;6.25;4.35;;;18.00;99.90;;;;;;5021484;28;20113;-89
2023/06/23 02:59:05;;;;;;;6.82;4.68;;;18.00;99.90;;;;;;4990741;28;20026;-89
2023/06/23 03:01:34;;;;;;;6.65;4.60;;;18.00;99.90;;;;;;5012561;28;20660;-89
2023/06/23 03:04:00;;;;;;;5.75;4.88;;;18.00;99.90;;;;;;5003060;28;20121;-89
2023/06/23 03:06:26;;;;;;;6.50;4.60;;;18.00;99.90;;;;;;5019869;28;20124;-89
2023/06/23 03:08:52;;;;;;;14.88;5.13;;;17.90;99.90;;;;;;5020626;28;20497;-90
2023/06/23 03:11:18;;;;;;;6.75;4.43;;;17.90;99.90;;;;;;4996277;28;20065;-90
2023/06/23 03:13:44;;;;;;;5.65;4.10;;;18.00;99.90;;;;;;5005639;28;20674;-89
2023/06/23 03:16:19;;;;;;;4.78;4.38;;;17.90;99.90;;;;;;5003557;28;20058;-89
2023/06/23 03:18:58;;;;;;;5.22;4.05;;;17.90;99.90;;;;;;4998848;28;20033;-89
2023/06/23 03:21:24;;;;;;;6.38;4.53;;;17.90;99.90;;;;;;4999993;28;20040;-90
2023/06/23 03:23:55;;;;;;;8.45;4.45;;;17.90;99.90;;;;;;5001462;28;20477;-89
2023/06/23 03:26:23;;;;;;;5.75;4.78;;;17.90;99.90;;;;;;5002717;28;20110;-88
2023/06/23 03:28:57;;;;;;;5.70;5.10;;;17.80;99.90;;;;;;4985302;28;20444;-89
2023/06/23 03:31:25;;;;;;;5.93;4.87;;;17.80;99.90;;;;;;4993972;28;20107;-88
2023/06/23 03:33:51;;;;;;;6.15;4.38;;;17.80;99.90;;;;;;5015186;28;20472;-89
2023/06/23 03:36:22;;;;;;;9.20;4.80;;;17.80;99.90;;;;;;4996796;28;20627;-88
2023/06/23 03:39:12;;;;;;;7.72;5.47;;;17.80;99.90;;;;;;4983755;28;20049;-89
2023/06/23 03:41:40;;;;;;;21.73;6.13;;;17.70;99.90;;;;;;5002860;28;20057;-89
2023/06/23 03:44:18;;;;;;;8.75;4.97;;;17.80;99.90;;;;;;5027672;28;20025;-88
2023/06/23 03:46:50;;;;;;;5.95;5.38;;;17.70;99.90;;;;;;5000197;28;20121;-89
2023/06/23 03:49:18;;;;;;;5.35;4.28;;;17.70;99.90;;;;;;5008126;28;20044;-88
2023/06/23 03:51:47;;;;;;;6.53;4.60;;;17.70;99.90;;;;;;5013240;28;20037;-89
2023/06/23 03:54:16;;;;;;;5.57;4.45;;;17.60;99.90;;;;;;5000505;28;20060;-89
2023/06/23 03:56:45;;;;;;;5.20;4.30;;;17.60;99.90;;;;;;4990267;28;20025;-90
2023/06/23 03:59:13;;;;;;;5.38;4.88;;;17.60;99.90;;;;;;5004076;28;20029;-88
2023/06/23 04:01:41;;;;;;;6.40;3.97;;;17.50;99.90;;;;;;5005891;28;20135;-89
2023/06/23 04:04:09;;;;;;;8.05;4.07;;;17.50;99.90;;;;;;5016596;28;20025;-90
2023/06/23 04:06:36;;;;;;;6.47;4.60;;;17.50;99.90;;;;;;5010421;28;20504;-88
2023/06/23 04:09:04;;;;;;;5.03;4.53;;;17.50;99.90;;;;;;4994549;28;20117;-89
2023/06/23 04:11:32;;;;;;;7.78;4.78;;;17.40;99.90;;;;;;5016736;28;20033;-89
2023/06/23 04:13:59;;;;;;;5.20;4.38;;;17.40;99.90;;;;;;4998024;28;20149;-89
2023/06/23 04:16:26;;;;;;;8.90;4.57;;;17.30;99.90;;;;;;5012949;28;20144;-88
2023/06/23 04:18:54;;;;;;;8.18;4.80;;;17.30;99.90;;;;;;4997080;28;20103;-89
2023/06/23 04:21:22;;;;;;;5.50;4.38;;;17.20;99.90;;;;;;5010994;28;20042;-90
2023/06/23 04:23:51;;;;;;;4.85;4.45;;;17.20;99.90;;;;;;5013122;28;20394;-90
2023/06/23 04:26:17;;;;;;;7.07;5.72;;;17.10;99.90;;;;;;5007804;28;20037;-89
2023/06/23 04:28:45;;;;;;;5.65;5.15;;;17.10;99.90;;;;;;4999434;28;20057;-89
2023/06/23 04:31:12;;;;;;;9.23;5.50;;;17.00;99.90;;;;;;5004307;28;20042;-89
2023/06/23 04:33:41;;;;;;;6.78;4.78;;;17.00;99.90;;;;;;5009471;28;20029;-90
2023/06/23 04:36:13;;;;;;;5.68;5.13;;;16.90;99.90;;;;;;4995115;28;20038;-89
2023/06/23 04:38:46;;;;;;;5.63;4.72;;;16.80;99.90;;;;;;4999052;28;20040;-91
2023/06/23 04:41:17;;;;;;;7.00;5.25;;;16.80;99.90;;;;;;4987050;28;20025;-88
2023/06/23 04:43:45;;;;;;;6.90;4.88;;;16.70;99.90;;;;;;5019998;28;20125;-90
2023/06/23 04:46:23;;;;;;;5.90;5.30;;;16.70;99.90;;;;;;4985977;28;20034;-90
2023/06/23 04:49:02;;;;;;;6.90;4.70;;;16.60;99.90;;;;;;5012322;28;20265;-89
2023/06/23 04:51:32;;;;;;;5.30;4.63;;;16.60;99.90;;;;;;4997194;28;20033;-89
2023/06/23 04:54:08;;;;;;;8.85;5.13;;;16.60;99.90;;;;;;4997545;28;20037;-90
2023/06/23 04:56:36;;;;;;;5.63;5.05;;;16.60;99.90;;;;;;5002675;28;20037;-89
2023/06/23 04:59:05;;;;;;;5.97;4.70;;;16.60;99.90;;;;;;4994137;28;20029;-90
2023/06/23 05:01:33;;;;;;;6.70;5.20;;;16.60;99.90;;;;;;4981365;28;20029;-90
2023/06/23 05:04:01;;;;;;;5.55;5.03;;;16.60;99.90;;;;;;5004913;28;20059;-90
2023/06/23 05:06:29;;;;;;;6.10;5.18;;;16.50;99.90;;;;;;5011940;28;20116;-89
2023/06/23 05:08:56;;;;;;;9.27;5.13;;;16.50;99.90;;;;;;4996662;28;20030;-89
2023/06/23 05:11:23;;;;;;;5.38;4.82;;;16.50;99.90;;;;;;4994308;28;20446;-88
2023/06/23 05:13:51;;;;;;;6.78;4.75;;;16.50;99.90;;;;;;5028818;28;20115;-90
2023/06/23 05:16:18;;;;;;;6.40;5.20;;;16.50;99.90;;;;;;5002783;28;20569;-90
2023/06/23 05:18:46;;;;;;;5.30;4.80;;;16.50;99.90;;;;;;5004497;28;20042;-89
2023/06/23 05:21:16;;;;;;;8.20;5.53;;;16.50;99.90;;;;;;4994929;28;20033;-90
2023/06/23 05:23:44;;;;;;;9.38;5.32;;;16.40;99.90;;;;;;4990424;28;20021;-90
2023/06/23 05:26:14;;;;;;;5.80;5.30;;;16.40;99.90;;;;;;4995607;28;20049;-89
2023/06/23 05:28:41;;;;;;;9.30;5.10;;;16.40;99.90;;;;;;5003574;28;20137;-89
2023/06/23 05:31:09;;;;;;;8.02;5.18;;;16.30;99.90;;;;;;5005587;28;20036;-89
2023/06/23 05:33:41;;;;;;;7.55;5.25;;;16.30;99.90;;;;;;5001723;28;20512;-89
2023/06/23 05:36:11;;;;;;;6.25;5.65;;;16.40;99.90;;;;;;5016075;28;20025;-88
2023/06/23 05:38:41;;;;;;;10.73;6.53;;;16.40;99.90;;;;;;4994167;28;20037;-90
2023/06/23 05:41:07;;;;;;;7.78;6.03;;;16.40;99.90;;;;;;4995644;28;20378;-89
2023/06/23 05:43:33;;;;;;;10.50;6.22;;;16.40;99.90;;;;;;4976509;28;20034;-88
2023/06/23 05:46:01;;;;;;;9.68;6.25;;;16.40;99.90;;;;;;4986490;28;20061;-90
2023/06/23 05:48:30;;;;;;;7.78;6.97;;;16.40;99.90;;;;;;4997917;28;20033;-88
2023/06/23 05:50:58;;;;;;;7.18;6.43;;;16.40;99.90;;;;;;5003618;28;20026;-90
2023/06/23 05:53:25;;;;;;;10.30;6.30;;;16.50;99.90;;;;;;5003166;28;20037;-89
2023/06/23 05:56:17;;;;;;;8.05;6.43;;;16.40;99.90;;;;;;4987165;28;20037;-88
2023/06/23 05:58:46;;;;;;;11.00;6.20;;;16.40;99.90;;;;;;5007225;28;20026;-90
2023/06/23 06:01:16;;;;;;;7.70;6.68;;;16.40;99.90;;;;;;4989771;28;20104;-88
2023/06/23 06:03:47;;;;;;;9.80;6.85;;;16.40;99.90;;;;;;4994174;28;20055;-90
2023/06/23 06:06:15;;;;;;;10.77;6.53;;;16.30;99.90;;;;;;4976126;28;20586;-89
2023/06/23 06:08:43;;;;;;;7.80;6.90;;;16.30;99.90;;;;;;4998916;28;20029;-89
2023/06/23 06:11:10;;;;;;;7.60;6.90;;;16.30;99.90;;;;;;4985396;28;20036;-89
2023/06/23 06:13:43;;;;;;;8.82;6.53;;;16.30;99.90;;;;;;5014495;28;20041;-89
2023/06/23 06:16:10;;;;;;;9.23;6.60;;;16.40;99.90;;;;;;5003289;28;20043;-89
2023/06/23 06:18:37;;;;;;;7.97;7.10;;;16.40;99.90;;;;;;4998216;28;20034;-87
2023/06/23 06:21:05;;;;;;;9.50;6.55;;;16.40;99.90;;;;;;4999741;28;20084;-89
2023/06/23 06:23:32;;;;;;;6.80;6.15;;;16.40;99.90;;;;;;5010235;28;20056;-90
2023/06/23 06:26:00;;;;;;;7.70;6.78;;;16.40;99.90;;;;;;5003889;28;20029;-88
2023/06/23 06:28:27;;;;;;;11.85;7.07;;;16.30;99.90;;;;;;5002373;28;20064;-90
2023/06/23 06:30:55;;;;;;;8.93;6.90;;;16.30;99.90;;;;;;4977080;28;20145;-88
2023/06/23 06:33:22;;;;;;;11.10;6.78;;;16.30;99.90;;;;;;4990943;28;20040;-89
2023/06/23 06:35:51;;;;;;;9.82;7.00;;;16.30;99.90;;;;;;4995200;28;20030;-90
2023/06/23 06:38:19;;;;;;;11.35;6.40;;;16.40;99.90;;;;;;5001847;28;20037;-89
2023/06/23 06:40:47;;;;;;;6.93;6.32;;;16.30;99.90;;;;;;4987841;28;20506;-89
2023/06/23 06:43:13;;;;;;;8.07;6.60;;;16.30;99.90;;;;;;5023249;28;20025;-90
2023/06/23 06:45:40;;;;;;;7.35;6.57;;;16.30;99.90;;;;;;5003252;28;20033;-90
2023/06/23 06:48:08;;;;;;;8.80;5.60;;;16.30;99.90;;;;;;4999650;28;20041;-90
2023/06/23 06:50:35;;;;;;;6.47;5.88;;;16.30;99.90;;;;;;4997602;28;20030;-90
2023/06/23 06:53:02;;;;;;;6.35;5.75;;;16.30;99.90;;;;;;5006626;28;20037;-90
2023/06/23 06:55:28;;;;;;;10.02;7.05;;;16.30;99.90;;;;;;5010536;28;20159;-89
2023/06/23 06:57:54;;;;;;;6.88;6.20;;;16.50;99.90;;;;;;5023408;28;20029;-90
2023/06/23 07:00:23;;;;;;;8.07;5.68;;;16.50;99.90;;;;;;4997686;28;20033;-91
2023/06/23 07:02:49;;;;;;;6.90;5.68;;;16.60;99.90;;;;;;4991774;28;20489;-88
2023/06/23 07:05:18;;;;;;;10.80;5.32;;;16.70;99.90;;;;;;4980693;28;20076;-90
2023/06/23 07:07:45;;;;;;;7.05;5.85;;;16.60;99.90;;;;;;5004248;28;20030;-88
2023/06/23 07:10:11;;;;;;;5.85;5.35;;;16.70;99.90;;;;;;5013352;28;20474;-90
2023/06/23 07:12:37;;;;;;;7.90;5.70;;;16.80;99.90;;;;;;4996186;28;20038;-88
2023/06/23 07:15:03;;;;;;;6.75;6.00;;;16.80;99.90;;;;;;4987359;28;20037;-90
2023/06/23 07:17:29;;;;;;;7.00;6.13;;;16.90;99.90;;;;;;4982561;28;20064;-88
2023/06/23 07:19:55;;;;;;;5.78;5.28;;;17.00;99.90;;;;;;4985274;28;20033;-90
2023/06/23 07:22:20;;;;;;;6.15;4.45;;;17.10;99.90;;;;;;4997420;28;20025;-89
2023/06/23 07:24:46;;;;;;;7.40;4.72;;;17.10;99.90;;;;;;4986838;28;20112;-89
2023/06/23 07:27:14;;;;;;;5.03;4.55;;;17.10;99.90;;;;;;5011619;28;20457;-90
2023/06/23 07:29:41;;;;;;;7.05;4.40;;;17.10;99.90;;;;;;4998563;28;20781;-89
2023/06/23 07:32:07;;;;;;;5.60;4.30;;;17.10;99.90;;;;;;5006270;28;20064;-89
2023/06/23 07:34:34;;;;;;;6.13;4.35;;;17.00;99.90;;;;;;5000182;28;20037;-89
2023/06/23 07:37:00;;;;;;;4.43;4.03;;;17.00;99.90;;;;;;5013897;28;20033;-89
2023/06/23 07:39:25;;;;;;;4.70;4.30;;;16.90;99.90;;;;;;4985753;28;20379;-90
2023/06/23 07:41:51;;;;;;;4.03;3.72;;;16.90;99.90;;;;;;5006116;28;21425;-89
2023/06/23 07:44:17;;;;;;;4.45;3.97;;;16.80;99.90;;;;;;5000362;28;20132;-89
2023/06/23 07:46:43;;;;;;;4.40;4.00;;;16.70;99.90;;;;;;4999675;28;20025;-89
2023/06/23 07:49:09;;;;;;;4.40;3.95;;;16.70;99.90;;;;;;5000408;28;20042;-89
2023/06/23 07:51:34;;;;;;;6.88;4.70;;;16.60;99.90;;;;;;5001953;28;20565;-90
2023/06/23 07:54:00;;;;;;;4.53;4.13;;;16.50;99.90;;;;;;5014846;28;20516;-88
2023/06/23 07:56:26;;;;;;;4.90;4.25;;;16.50;99.90;;;;;;4995987;28;20437;-90
2023/06/23 07:58:52;;;;;;;4.88;3.83;;;16.50;99.90;;;;;;4998240;28;20494;-89
2023/06/23 08:01:17;;;;;;;3.72;3.42;;;16.50;99.90;;;;;;5017944;28;20095;-88
2023/06/23 08:03:46;;;;;;;4.82;4.40;;;16.40;99.90;;;;;;4998106;28;20029;-89
2023/06/23 08:06:13;;;;;;;4.53;4.13;;;16.40;99.90;;;;;;5000068;28;20059;-89
2023/06/23 08:08:40;;;;;;;4.30;3.90;;;16.40;99.90;;;;;;4996373;28;20029;-89
2023/06/23 08:11:06;;;;;;;5.13;4.18;;;16.30;99.90;;;;;;5004373;28;20120;-90
2023/06/23 08:13:32;;;;;;;4.97;4.40;;;16.30;99.90;;;;;;4996021;28;20394;-89
2023/06/23 08:15:58;;;;;;;4.35;3.85;;;16.20;99.90;;;;;;4994063;28;20029;-87
2023/06/23 08:18:23;;;;;;;4.90;4.45;;;16.10;99.90;;;;;;5010603;28;20044;-88
2023/06/23 08:20:49;;;;;;;4.10;3.70;;;16.10;99.90;;;;;;4969187;28;20038;-88
2023/06/23 08:23:15;;;;;;;5.10;4.60;;;16.10;99.90;;;;;;5018419;28;20673;-88
2023/06/23 08:25:42;;;;;;;4.65;4.25;;;16.10;99.90;;;;;;5005428;28;20018;-90
2023/06/23 08:28:07;;;;;;;6.00;4.18;;;16.10;99.90;;;;;;4980370;28;20041;-89
2023/06/23 08:30:33;;;;;;;4.95;4.47;;;16.10;99.90;;;;;;5009487;28;20040;-89
2023/06/23 08:32:59;;;;;;;5.22;4.72;;;16.10;99.90;;;;;;4994750;28;20436;-89
2023/06/23 08:35:26;;;;;;;6.85;4.90;;;16.10;99.90;;;;;;4993958;28;20129;-90
2023/06/23 08:37:51;;;;;;;6.13;4.80;;;16.10;99.90;;;;;;5012644;28;20692;-91
2023/06/23 08:40:17;;;;;;;5.32;4.72;;;16.10;99.90;;;;;;4999720;28;20109;-87
2023/06/23 08:42:44;;;;;;;8.02;4.93;;;16.20;99.90;;;;;;4999710;28;20034;-89
2023/06/23 08:45:12;;;;;;;6.60;5.10;;;16.20;99.90;;;;;;5006302;28;20025;-89
2023/06/23 08:47:51;;;;;;;6.82;4.85;;;16.20;99.90;;;;;;4992803;28;20030;-89
2023/06/23 08:50:18;;;;;;;5.45;4.30;;;16.20;99.90;;;;;;4992925;28;20029;-88
2023/06/23 08:52:44;;;;;;;5.35;4.85;;;16.10;99.90;;;;;;5004879;28;20039;-88
2023/06/23 08:55:11;;;;;;;4.97;4.57;;;16.20;99.90;;;;;;4986613;28;20034;-89
2023/06/23 08:57:38;;;;;;;5.22;4.72;;;16.10;99.90;;;;;;4999761;28;20785;-89
2023/06/23 09:00:07;;;;;;;5.40;4.90;;;16.10;99.90;;;;;;4999534;28;20056;-89
2023/06/23 09:02:34;;;;;;;5.32;4.82;;;16.10;99.90;;;;;;5007414;28;20068;-88
2023/06/23 09:05:00;;;;;;;4.93;4.50;;;16.10;99.90;;;;;;5012144;28;20077;-88
2023/06/23 09:07:26;;;;;;;5.20;4.70;;;16.10;99.90;;;;;;5011495;28;20068;-89
2023/06/23 09:09:52;;;;;;;4.68;4.20;;;16.10;99.90;;;;;;5000059;28;20032;-90
2023/06/23 09:12:22;;;;;;;5.15;4.50;;;16.10;99.90;;;;;;4994273;28;20124;-89
2023/06/23 09:14:52;;;;;;;5.72;4.20;;;16.10;99.90;;;;;;4997828;28;20423;-89
2023/06/23 09:17:19;;;;;;;9.20;4.90;;;16.20;99.90;;;;;;4991549;28;20052;-88
2023/06/23 09:19:49;;;;;;;17.60;4.47;;;16.20;99.90;;;;;;5003535;28;20025;-90
2023/06/23 09:22:25;;;;;;;10.02;5.03;;;16.30;99.90;;;;;;5002763;28;20036;-88
2023/06/23 09:24:51;;;;;;;6.97;4.63;;;16.50;99.90;;;;;;4997627;28;20382;-88
2023/06/23 09:27:18;;;;;;;8.77;4.32;;;16.50;99.90;;;;;;4983752;28;20037;-87
2023/06/23 09:29:59;;;;;;;4.30;3.72;;;16.60;99.90;;;;;;5002907;28;20037;-87
2023/06/23 09:32:29;;;;;;;6.68;3.58;;;16.60;99.90;;;;;;5001345;28;20038;-88
2023/06/23 09:34:55;;;;;;;3.53;3.22;;;16.70;99.90;;;;;;4995359;28;20040;-89
2023/06/23 09:37:21;;;;;;;5.25;3.40;;;16.70;99.90;;;;;;5000624;28;20033;-88
2023/06/23 09:39:49;;;;;;;4.25;3.03;;;16.70;99.90;;;;;;4986730;28;20037;-89
2023/06/23 09:42:16;;;;;;;4.32;3.42;;;16.80;99.90;;;;;;5020599;28;20026;-88
2023/06/23 09:44:46;;;;;;;6.28;3.25;;;16.90;99.90;;;;;;5012886;28;20036;-90
2023/06/23 09:47:17;;;;;;;8.30;3.30;;;16.90;99.90;;;;;;4996047;28;20398;-88
2023/06/23 09:49:44;;;;;;;3.25;2.90;;;17.10;99.90;;;;;;5029838;28;20024;-89
2023/06/23 09:52:22;;;;;;;4.72;2.90;;;17.20;99.90;;;;;;4996135;28;20116;-89
2023/06/23 09:54:47;;;;;;;5.13;2.83;;;17.30;99.90;;;;;;5009733;28;20044;-89
2023/06/23 09:57:15;;;;;;;3.70;2.60;;;17.30;99.90;;;;;;4997105;28;20021;-88
2023/06/23 09:59:44;;;;;;;3.15;2.72;;;17.30;99.90;;;;;;5013786;28;20022;-89
2023/06/23 10:02:22;;;;;;;3.92;3.10;;;17.20;99.90;;;;;;5016338;28;20065;-88
2023/06/23 10:04:49;;;;;;;3.50;2.97;;;17.20;99.90;;;;;;5002440;28;20509;-87
2023/06/23 10:07:20;;;;;;;3.15;2.95;;;17.10;99.90;;;;;;4995257;28;20533;-87
2023/06/23 10:09:57;;;;;;;3.45;3.15;;;17.00;99.90;;;;;;4995438;28;20113;-87
2023/06/23 10:12:27;;;;;;;3.65;2.90;;;17.00;99.90;;;;;;5013874;28;20036;-89
2023/06/23 10:14:55;;;;;;;3.92;3.55;;;17.00;99.90;;;;;;5015022;28;20073;-87
2023/06/23 10:17:22;;;;;;;4.38;3.40;;;17.00;99.90;;;;;;5016786;28;20524;-87
2023/06/23 10:19:49;;;;;;;3.33;3.00;;;17.10;99.90;;;;;;5001697;28;20474;-89
2023/06/23 10:22:18;;;;;;;8.02;2.65;;;17.10;99.90;;;;;;4996703;28;20033;-89
2023/06/23 10:24:46;;;;;;;4.55;3.60;;;17.00;99.90;;;;;;5014528;28;20089;-90
2023/06/23 10:27:21;;;;;;;3.75;2.85;;;17.00;99.90;;;;;;4995104;28;20033;-86
2023/06/23 10:29:52;;;;;;;2.97;2.73;;;16.90;99.90;;;;;;5003584;28;20048;-88
2023/06/23 10:32:22;;;;;;;2.75;2.30;;;16.90;99.90;;;;;;4993997;28;20108;-89
2023/06/23 10:34:51;;;;;;;2.60;2.40;;;16.80;99.90;;;;;;4981616;28;20033;-90
2023/06/23 10:37:22;;;;;;;2.50;2.20;;;16.70;99.90;;;;;;4993397;28;20478;-89
2023/06/23 10:40:04;;;;;;;2.78;2.58;;;16.70;99.90;;;;;;4994715;28;20036;-90
2023/06/23 10:42:34;;;;;;;3.08;2.75;;;16.70;99.90;;;;;;4991849;28;20068;-89
2023/06/23 10:45:01;;;;;;;2.67;2.47;;;16.70;99.90;;;;;;5005532;28;20129;-89
2023/06/23 10:47:27;;;;;;;4.80;2.53;;;16.70;99.90;;;;;;4996656;28;20025;-89
2023/06/23 10:49:55;;;;;;;3.20;2.90;;;16.60;99.90;;;;;;4985588;28;20502;-87
2023/06/23 10:52:22;;;;;;;3.65;2.40;;;16.50;99.90;;;;;;5004888;28;20585;-89
2023/06/23 10:54:47;;;;;;;6.53;3.50;;;16.50;99.90;;;;;;4996006;28;20129;-89
2023/06/23 10:57:14;;;;;;;4.88;2.40;;;16.40;99.90;;;;;;4982314;28;20116;-89
2023/06/23 10:59:57;;;;;;;4.13;1.77;;;16.40;99.90;;;;;;5013530;28;20021;-87
2023/06/23 11:02:23;;;;;;;3.00;2.35;;;16.40;99.90;;;;;;5001487;28;20021;-90
2023/06/23 11:05:03;;;;;;;2.97;1.60;;;16.30;99.90;;;;;;5000905;28;20491;-90
2023/06/23 11:07:29;;;;;;;1.63;1.52;;;16.40;99.90;;;;;;5003961;28;20037;-91
2023/06/23 11:09:55;;;;;;;1.75;1.58;;;16.40;99.90;;;;;;4987967;28;20110;-89
2023/06/23 11:12:36;;;;;;;3.45;1.73;;;16.40;99.90;;;;;;5019250;28;20033;-91
2023/06/23 11:15:08;;;;;;;1.40;1.30;;;16.50;99.90;;;;;;5011816;28;20124;-89
2023/06/23 11:17:48;;;;;;;1.77;1.42;;;16.50;99.90;;;;;;5004793;28;20085;-89
2023/06/23 11:20:24;;;;;;;1.70;1.60;;;16.50;99.90;;;;;;5034391;28;20029;-89
2023/06/23 11:23:00;;;;;;;1.50;1.40;;;16.50;99.90;;;;;;5021260;28;20027;-90
2023/06/23 11:25:36;;;;;;;1.48;1.38;;;16.50;99.90;;;;;;4982365;28;20057;-87
2023/06/23 11:28:37;;;;;;;2.80;1.40;;;16.60;99.90;;;;;;5007558;28;20093;-88
2023/06/23 11:31:08;;;;;;;1.50;1.40;;;16.60;99.90;;;;;;4993716;28;20037;-90
2023/06/23 11:33:37;;;;;;;1.40;1.30;;;16.70;99.90;;;;;;5008606;28;20048;-89
2023/06/23 11:36:08;;;;;;;2.60;1.30;;;16.70;99.90;;;;;;5011530;28;20029;-89
2023/06/23 11:38:36;;;;;;;2.22;1.80;;;16.90;99.90;;;;;;4992264;28;20469;-90
2023/06/23 11:41:05;;;;;;;1.60;1.50;;;16.80;99.90;;;;;;4996179;28;20033;-89
2023/06/23 11:43:38;;;;;;;3.33;1.35;;;16.90;99.90;;;;;;5003494;28;20021;-90
2023/06/23 11:46:16;;;;;;;1.40;1.30;;;16.90;99.90;;;;;;4999184;28;20044;-89
2023/06/23 11:48:42;;;;;;;1.27;1.00;;;16.90;99.90;;;;;;5015242;28;20615;-89
2023/06/23 11:51:13;;;;;;;2.47;1.20;;;16.80;99.90;;;;;;4994865;28;20111;-89
2023/06/23 11:53:42;;;;;;;2.55;0.93;;;16.80;99.90;;;;;;5017578;28;20187;-90
2023/06/23 11:56:09;;;;;;;1.20;1.10;;;16.70;99.90;;;;;;4996511;28;20026;-88
2023/06/23 11:58:35;;;;;;;1.08;0.95;;;16.70;99.90;;;;;;4991374;28;20028;-89
2023/06/23 12:01:01;;;;;;;1.88;0.80;;;16.60;99.90;;;;;;5010302;28;20501;-89
2023/06/23 12:03:35;;;;;;;2.92;1.10;;;16.50;99.90;;;;;;4999136;28;20021;-90
2023/06/23 12:06:00;;;;;;;0.98;0.80;;;16.40;99.90;;;;;;5002396;28;20546;-90
2023/06/23 12:08:27;;;;;;;0.90;0.90;;;16.40;99.90;;;;;;5013470;28;20038;-90
2023/06/23 12:10:54;;;;;;;2.40;0.95;;;16.30;99.90;;;;;;5001302;28;20064;-90
2023/06/23 12:13:20;;;;;;;0.90;0.80;;;16.30;99.90;;;;;;4993130;28;20389;-88
2023/06/23 12:15:46;;;;;;;3.55;0.63;;;16.30;99.90;;;;;;5019052;28;20041;-89
2023/06/23 12:18:12;;;;;;;0.57;0.57;;;16.30;99.90;;;;;;5019569;28;20020;-90
2023/06/23 12:20:47;;;;;;;2.78;0.80;;;16.30;99.90;;;;;;4980022;28;20022;-89
2023/06/23 12:23:14;;;;;;;2.15;0.70;;;16.20;99.90;;;;;;5007819;28;20148;-88
2023/06/23 12:25:45;;;;;;;1.08;0.70;;;16.20;99.90;;;;;;5017045;28;20107;-89
2023/06/23 12:28:15;;;;;;;1.60;0.50;;;16.20;99.90;;;;;;4988119;28;20056;-89
2023/06/23 12:30:48;;;;;;;2.03;0.70;;;16.20;99.90;;;;;;5005818;28;20087;-89
2023/06/23 12:33:21;;;;;;;0.95;0.70;;;16.20;99.90;;;;;;5014285;28;20516;-89
2023/06/23 12:36:03;;;;;;;3.90;0.73;;;16.20;99.90;;;;;;4998256;28;20030;-89
2023/06/23 12:38:31;;;;;;;0.65;0.50;;;16.20;99.90;;;;;;5003495;28;20029;-90
2023/06/23 12:41:15;;;;;;;1.95;0.60;;;16.10;99.90;;;;;;4995156;28;20032;-88
2023/06/23 12:43:42;;;;;;;1.15;0.65;;;16.10;99.90;;;;;;4996984;28;20459;-88
2023/06/23 12:46:11;;;;;;;1.00;1.00;;;16.10;99.90;;;;;;5010222;28;20030;-88
2023/06/23 12:48:39;;;;;;;1.33;0.60;;;16.10;99.90;;;;;;4990818;28;20124;-88
2023/06/23 12:51:05;;;;;;;1.55;0.60;;;16.10;99.90;;;;;;4999556;28;20038;-87
2023/06/23 12:53:32;;;;;;;1.15;0.70;;;16.10;99.90;;;;;;5015083;28;20044;-88
2023/06/23 12:55:57;;;;;;;0.60;0.60;;;16.20;99.90;;;;;;5000525;28;20103;-88